Newport, NC

5:38 PM EST on February 21, 2017 (GMT -0500)
Bogue McAlf

Weather History for KNJM - April, 2014

Change the Weather History Date:

Sunday, April 20, 2014

  Actual Average (KNKT) Record (KNKT)
Temperature  
Mean Temperature 54 °F -  
Max Temperature 57 °F 71 °F 86 °F (2002)
Min Temperature 52 °F 50 °F 33 °F (2008)
Degree Days  
Heating Degree Days 10    
Growing Degree Days 4 (Base 50)    
Moisture  
Dew Point 51 °F    
Average Humidity 88    
Maximum Humidity 94    
Minimum Humidity 80    
Precipitation  
Precipitation 0.08 in - - ()
Sea Level Pressure  
Sea Level Pressure 30.08 in    
Wind  
Wind Speed 17 mph (NNE)    
Max Wind Speed 23 mph    
Max Gust Speed 39 mph    
Visibility 6 miles    
Events Rain    
Averages and records for this station are not official NWS values.
T = Trace of Precipitation, MM = Missing Value Source: NWS Daily Summary

Daily Weather History Graph

Daily Weather History Graph

Search for Another Location

Airport or City:

Trip Planner

Search our weather history database for the weather conditions in past years. The results will help you decide how hot, cold, wet, or windy it might be!

Date:

Astronomy

Apr. 20, 2014 Rise Set
Actual Time 6:30 AM EDT 7:44 PM EDT
Civil Twilight 6:04 AM EDT 8:10 PM EDT
Nautical Twilight 5:32 AM EDT 8:41 PM EDT
Astronomical Twilight 5:00 AM EDT 9:14 PM EDT
Moon 12:17 AM EDT (4/20) 10:53 AM EDT (4/20)
Length of Visible Light 14h 06m
Length of Day
13h 13m
Waning Gibbous, 69% of the Moon is Illuminated
Apr 20
Waning Gibbous
Apr 22
Last Quarter
Apr 29
New
May 6
First Quarter
May 14
Full

Hourly Weather History & Observations

Time (EDT) Temp. Dew Point Humidity Pressure Visibility Wind Dir Wind Speed Gust Speed Precip Events Conditions
12:57 AM 53.1 °F 50.0 °F 89% 30.12 in 10.0 mi NNE 17.3 mph 23.0 mph 0.00 in   Overcast
1:13 AM 53.1 °F 50.0 °F 89% 30.09 in 10.0 mi NNE 19.6 mph 29.9 mph N/A   Overcast
1:57 AM 53.1 °F 50.0 °F 89% 30.09 in 10.0 mi NNE 17.3 mph 24.2 mph N/A   Overcast
2:05 AM 53.1 °F 50.0 °F 89% 30.08 in 9.0 mi NNE 19.6 mph 26.5 mph 0.00 in Rain Light Rain
2:57 AM 54.0 °F 51.1 °F 90% 30.06 in 10.0 mi NNE 16.1 mph 27.6 mph 0.00 in   Mostly Cloudy
3:17 AM 55.0 °F 51.1 °F 86% 30.06 in 10.0 mi NE 16.1 mph 24.2 mph N/A   Mostly Cloudy
3:57 AM 55.0 °F 52.0 °F 89% 30.06 in 10.0 mi NNE 16.1 mph 26.5 mph 0.00 in Rain Light Rain
4:40 AM 55.0 °F 52.0 °F 89% 30.05 in 8.0 mi NNE 15.0 mph 24.2 mph 0.00 in Rain Light Rain
4:57 AM 55.0 °F 52.0 °F 89% 30.05 in 8.0 mi NNE 19.6 mph 28.8 mph 0.00 in Rain Light Rain
5:11 AM 55.0 °F 52.0 °F 89% 30.04 in 10.0 mi NNE 17.3 mph 26.5 mph 0.00 in   Overcast
5:57 AM 54.0 °F 51.1 °F 90% 30.04 in 10.0 mi NNE 17.3 mph 28.8 mph 0.00 in   Overcast
6:19 AM 54.0 °F 50.0 °F 86% 30.04 in 9.0 mi NNE 19.6 mph 26.5 mph N/A   Overcast
6:57 AM 53.1 °F 48.9 °F 86% 30.07 in 9.0 mi North 12.7 mph 26.5 mph N/A   Overcast
7:48 AM 53.1 °F 48.9 °F 86% 30.06 in 10.0 mi North 18.4 mph 26.5 mph N/A   Overcast
7:57 AM 54.0 °F 48.9 °F 83% 30.08 in 9.0 mi NNE 15.0 mph 24.2 mph N/A   Overcast
8:07 AM 53.1 °F 48.9 °F 86% 30.07 in 6.0 mi North 17.3 mph 24.2 mph N/A   Overcast
8:53 AM 53.6 °F 48.2 °F 82% 30.07 in 6.0 mi North 13.8 mph 24.2 mph 0.00 in   Overcast
8:57 AM 53.1 °F 48.9 °F 86% 30.09 in 7.0 mi North 13.8 mph 21.9 mph 0.00 in   Overcast
9:57 AM 55.0 °F 48.9 °F 80% 30.10 in 6.0 mi NNE 13.8 mph 24.2 mph 0.00 in Rain Light Rain
10:27 AM 55.0 °F 51.1 °F 86% 30.09 in 2.0 mi North 17.3 mph 28.8 mph 0.01 in Rain Rain
10:32 AM 55.0 °F 51.1 °F 86% 30.09 in 1.8 mi NNE 16.1 mph 28.8 mph 0.01 in Rain Rain
10:37 AM 55.0 °F 51.1 °F 86% 30.09 in 2.0 mi North 18.4 mph 27.6 mph 0.01 in Rain Light Rain
10:52 AM 55.4 °F 51.8 °F 88% 30.09 in 3.0 mi NNE 12.7 mph 23.0 mph 0.01 in Rain Light Rain
10:57 AM 55.9 °F 52.0 °F 87% 30.10 in 3.0 mi NNE 17.3 mph 28.8 mph 0.01 in Rain Light Rain
11:04 AM 55.9 °F 53.1 °F 90% 30.09 in 1.8 mi NNE 15.0 mph 28.8 mph 0.01 in Rain Light Rain
11:19 AM 55.9 °F 53.1 °F 90% 30.09 in 3.0 mi NNE 17.3 mph 32.2 mph 0.01 in Rain Light Rain
11:32 AM 55.9 °F 53.1 °F 90% 30.09 in 2.5 mi NNE 17.3 mph 27.6 mph 0.02 in Rain Light Rain
11:40 AM 55.9 °F 53.1 °F 90% 30.09 in 3.0 mi NNE 15.0 mph 27.6 mph 0.02 in Rain Light Rain
11:49 AM 55.9 °F 53.1 °F 90% 30.08 in 2.5 mi North 15.0 mph 25.3 mph 0.04 in Rain Rain
11:54 AM 55.4 °F 53.6 °F 94% 30.08 in 3.0 mi NNE 17.3 mph 29.9 mph 0.04 in Rain Light Rain
11:57 AM 57.0 °F 54.0 °F 89% 30.09 in 2.5 mi North 18.4 mph 29.9 mph 0.04 in Rain Light Rain
12:09 PM 57.0 °F 54.0 °F 89% 30.08 in 1.5 mi NNE 17.3 mph 31.1 mph 0.00 in Rain Light Rain
12:43 PM 57.0 °F 54.0 °F 89% 30.08 in 2.5 mi North 16.1 mph 25.3 mph 0.01 in Rain Light Rain
12:57 PM 57.0 °F 54.0 °F 89% 30.09 in 4.0 mi NNE 15.0 mph 35.7 mph 0.01 in Rain Light Rain
1:49 PM 57.0 °F 54.0 °F 89% 30.08 in 2.5 mi NNE 23.0 mph 32.2 mph 0.00 in Rain Light Rain
1:56 PM 57.0 °F 54.0 °F 89% 30.09 in 3.0 mi North 21.9 mph 32.2 mph 0.00 in Rain Light Rain
2:08 PM 57.0 °F 54.0 °F 89% 30.08 in 2.5 mi North 19.6 mph 29.9 mph 0.00 in Rain Light Rain
2:21 PM 57.0 °F 54.0 °F 89% 30.08 in 1.8 mi North 15.0 mph 35.7 mph 0.02 in Rain Light Rain
2:28 PM 57.0 °F 53.1 °F 87% 30.08 in 2.5 mi NNE 19.6 mph 29.9 mph 0.02 in Rain Light Rain
2:44 PM 55.9 °F 53.1 °F 90% 30.08 in 2.5 mi NNE 17.3 mph 26.5 mph 0.02 in Rain Light Rain
2:54 PM 55.4 °F 53.6 °F 94% 30.08 in 3.0 mi NNE 15.0 mph 26.5 mph 0.02 in Rain Light Rain
2:57 PM 55.9 °F 53.1 °F 90% 30.09 in 3.0 mi NNE 17.3 mph 27.6 mph 0.02 in Rain Light Rain
3:57 PM 55.9 °F 52.0 °F 87% 30.09 in 5.0 mi NNE 16.1 mph 28.8 mph 0.00 in Rain Light Rain
4:21 PM 55.0 °F 52.0 °F 89% 30.09 in 4.0 mi NNE 18.4 mph 31.1 mph 0.00 in Rain Light Rain
4:39 PM 55.0 °F 52.0 °F 89% 30.09 in 3.0 mi NNE 19.6 mph 39.1 mph 0.00 in Rain Light Rain
4:46 PM 55.0 °F 52.0 °F 89% 30.09 in 2.0 mi NNE 16.1 mph 39.1 mph 0.00 in Rain Light Rain
4:57 PM 55.0 °F 52.0 °F 89% 30.10 in 2.5 mi NNE 19.6 mph 29.9 mph 0.00 in Rain Light Rain
5:12 PM 55.0 °F 52.0 °F 89% 30.09 in 1.8 mi NNE 21.9 mph 32.2 mph 0.00 in Rain Light Rain
5:23 PM 55.0 °F 52.0 °F 89% 30.09 in 2.0 mi NNE 23.0 mph 31.1 mph 0.00 in Rain Light Rain
5:40 PM 55.0 °F 52.0 °F 89% 30.08 in 4.0 mi NNE 17.3 mph 31.1 mph 0.00 in Rain Light Rain
5:57 PM 55.0 °F 52.0 °F 89% 30.10 in 4.0 mi NNE 17.3 mph 31.1 mph 0.00 in Rain Light Rain
6:41 PM 54.0 °F 51.1 °F 90% 30.07 in 10.0 mi NNE 19.6 mph 31.1 mph 0.00 in   Overcast
6:57 PM 54.0 °F 51.1 °F 90% 30.08 in 10.0 mi NNE 18.4 mph 33.4 mph 0.00 in   Overcast
7:06 PM 54.0 °F 51.1 °F 90% 30.07 in 10.0 mi NNE 21.9 mph 31.1 mph N/A   Overcast
7:57 PM 54.0 °F 50.0 °F 86% 30.09 in 10.0 mi NNE 15.0 mph 28.8 mph N/A   Overcast
8:57 PM 52.0 °F 48.0 °F 86% 30.11 in 10.0 mi NNE 18.4 mph 28.8 mph N/A   Overcast
9:57 PM 52.0 °F 46.9 °F 83% 30.12 in 10.0 mi NNE 19.6 mph 28.8 mph N/A   Overcast
10:38 PM 52.0 °F 46.0 °F 80% 30.10 in 10.0 mi North 17.3 mph 26.5 mph N/A   Overcast
10:57 PM 52.0 °F 46.0 °F 80% 30.11 in 10.0 mi North 15.0 mph 24.2 mph N/A   Overcast
11:57 PM 52.0 °F 46.0 °F 80% 30.11 in 10.0 mi North 9.2 mph 21.9 mph N/A   Overcast